createdAt,value
2023-05-14T00:00:20.603Z,102164.31
2023-05-14T00:02:50.480Z,102113.75
2023-05-14T00:05:17.096Z,102136.38
2023-05-14T00:07:43.771Z,102154.81
2023-05-14T00:10:14.607Z,102098.03
2023-05-14T00:12:41.236Z,102132.91
2023-05-14T00:15:17.249Z,102107.53
2023-05-14T00:17:44.014Z,102123.25
2023-05-14T00:20:14.084Z,102112.66
2023-05-14T00:22:41.071Z,102117.81
2023-05-14T00:25:08.903Z,102116.06
2023-05-14T00:27:38.460Z,102135.31
2023-05-14T00:30:07.006Z,102121.28
2023-05-14T00:32:34.099Z,102136.16
2023-05-14T00:35:02.975Z,102131.59
2023-05-14T00:37:29.578Z,102125.53
2023-05-14T00:39:56.192Z,102108.06
2023-05-14T00:42:22.737Z,102109.75
2023-05-14T00:44:49.254Z,102115.81
2023-05-14T00:47:15.970Z,102112.34
2023-05-14T00:49:43.269Z,102120.09
2023-05-14T00:52:11.455Z,102117.47
2023-05-14T00:54:38.234Z,102122.69
2023-05-14T00:57:06.763Z,102122.63
2023-05-14T00:59:33.652Z,102127.78
2023-05-14T01:02:00.582Z,102107.66
2023-05-14T01:04:30.328Z,102128.59
2023-05-14T01:07:34.534Z,102125.94
2023-05-14T01:10:06.121Z,102112.75
2023-05-14T01:12:44.201Z,102112.75
2023-05-14T01:15:19.409Z,102121.50
2023-05-14T01:17:55.586Z,102119.69
2023-05-14T01:20:23.317Z,102116.22
2023-05-14T01:22:50.050Z,102098.91
2023-05-14T01:25:16.680Z,102104.97
2023-05-14T01:27:51.247Z,102116.22
2023-05-14T01:30:35.898Z,102112.75
2023-05-14T01:33:21.149Z,102100.59
2023-05-14T01:35:49.081Z,102093.63
2023-05-14T01:38:18.704Z,102098.81
2023-05-14T01:40:46.651Z,102096.16
2023-05-14T01:43:13.895Z,102087.38
2023-05-14T01:45:40.600Z,102095.25
2023-05-14T01:48:07.375Z,102096.00
2023-05-14T01:50:34.332Z,102093.41
2023-05-14T01:53:00.943Z,102092.50
2023-05-14T01:55:27.482Z,102090.72
2023-05-14T01:57:54.343Z,102087.28
2023-05-14T02:00:22.172Z,102087.22
2023-05-14T02:02:48.914Z,102095.88
2023-05-14T02:05:15.727Z,102104.50
2023-05-14T02:07:42.310Z,102092.28
2023-05-14T02:10:09.572Z,102093.25
2023-05-14T02:12:36.317Z,102095.94
2023-05-14T02:15:03.849Z,102092.28
2023-05-14T02:17:30.478Z,102101.88
2023-05-14T02:19:57.035Z,102094.94
2023-05-14T02:22:23.637Z,102094.88
2023-05-14T02:24:51.447Z,102076.69
2023-05-14T02:27:18.151Z,102085.34
2023-05-14T02:29:45.022Z,102077.59
2023-05-14T02:32:11.591Z,102063.72
2023-05-14T02:34:38.732Z,102070.66
2023-05-14T02:37:05.624Z,102058.44
2023-05-14T02:39:32.321Z,102073.16
2023-05-14T02:41:59.067Z,102061.84
2023-05-14T02:44:25.631Z,102084.28
2023-05-14T02:46:52.255Z,102072.19
2023-05-14T02:49:18.867Z,102066.81
2023-05-14T02:51:45.451Z,102073.81
2023-05-14T02:54:11.989Z,102066.97
2023-05-14T02:56:38.587Z,102074.69
2023-05-14T02:59:05.176Z,102065.19
2023-05-14T03:01:32.233Z,102065.09
2023-05-14T03:03:59.199Z,102067.69
2023-05-14T03:06:26.043Z,102061.59
2023-05-14T03:08:52.657Z,102069.34
2023-05-14T03:11:19.262Z,102056.28
2023-05-14T03:13:45.838Z,102073.50
2023-05-14T03:16:12.623Z,102058.72
2023-05-14T03:18:39.414Z,102062.19
2023-05-14T03:21:06.175Z,102059.56
2023-05-14T03:23:34.996Z,102045.53
2023-05-14T03:26:02.203Z,102055.91
2023-05-14T03:28:28.962Z,102061.03
2023-05-14T03:30:58.458Z,102060.00
2023-05-14T03:33:31.338Z,102051.28
2023-05-14T03:36:00.583Z,102044.22
2023-05-14T03:38:34.769Z,102055.56
2023-05-14T03:41:01.444Z,102038.81
2023-05-14T03:43:30.512Z,101996.25
2023-05-14T03:45:57.171Z,102053.81
2023-05-14T03:48:23.868Z,102052.16
2023-05-14T03:50:51.356Z,102054.00
2023-05-14T03:53:17.965Z,102034.91
2023-05-14T03:55:44.525Z,102053.34
2023-05-14T03:58:14.212Z,102045.59
2023-05-14T04:00:42.501Z,102056.88
2023-05-14T04:03:09.210Z,102045.75
2023-05-14T04:05:36.013Z,102053.69
2023-05-14T04:08:02.601Z,102047.72
2023-05-14T04:10:29.310Z,102046.81
2023-05-14T04:12:56.206Z,102044.28
2023-05-14T04:15:23.068Z,102057.34
2023-05-14T04:17:49.688Z,102053.91
2023-05-14T04:20:16.411Z,102053.16
2023-05-14T04:22:42.936Z,102047.91
2023-05-14T04:25:09.753Z,102052.38
2023-05-14T04:27:36.315Z,102049.09
2023-05-14T04:30:03.124Z,102052.66
2023-05-14T04:32:30.363Z,102044.16
2023-05-14T04:34:57.012Z,102036.41
2023-05-14T04:37:23.652Z,102044.31
2023-05-14T04:39:50.189Z,102034.84
2023-05-14T04:42:16.855Z,102046.22
2023-05-14T04:44:46.293Z,102012.41
2023-05-14T04:47:16.025Z,102011.69
2023-05-14T04:49:43.460Z,102003.94
2023-05-14T04:52:18.826Z,102043.13
2023-05-14T04:54:54.235Z,102038.06
2023-05-14T04:57:21.164Z,102027.72
2023-05-14T04:59:47.974Z,101985.25
2023-05-14T05:02:14.473Z,102039.34
2023-05-14T05:04:41.053Z,102011.78
2023-05-14T05:07:07.640Z,102039.72
2023-05-14T05:09:34.268Z,102040.81
2023-05-14T05:12:01.633Z,102033.28
2023-05-14T05:14:28.201Z,102031.78
2023-05-14T05:16:55.787Z,102030.31
2023-05-14T05:19:39.568Z,101990.34
2023-05-14T05:22:09.687Z,101991.69
2023-05-14T05:24:38.350Z,102027.13
2023-05-14T05:27:05.636Z,102004.13
2023-05-14T05:29:32.408Z,101992.09
2023-05-14T05:32:02.420Z,102015.47
2023-05-14T05:34:29.066Z,102032.81
2023-05-14T05:36:56.275Z,102026.41
2023-05-14T05:39:25.395Z,102030.00
2023-05-14T05:44:33.234Z,102031.53
2023-05-14T05:46:59.961Z,102033.91
2023-05-14T05:49:27.804Z,102053.00
2023-05-14T05:51:57.794Z,102025.03
2023-05-14T05:54:35.316Z,102045.88
2023-05-14T05:57:07.178Z,102023.34
2023-05-14T05:59:36.907Z,102020.88
2023-05-14T06:02:03.761Z,102023.63
2023-05-14T06:04:35.832Z,102050.78
2023-05-14T06:07:02.595Z,102014.66
2023-05-14T06:09:30.532Z,101995.47
2023-05-14T06:12:03.248Z,101987.41
2023-05-14T06:14:29.922Z,102013.38
2023-05-14T06:16:56.598Z,102005.63
2023-05-14T06:19:23.403Z,102015.72
2023-05-14T06:21:50.065Z,101980.06
2023-05-14T06:24:16.728Z,102021.94
2023-05-14T06:26:49.288Z,101979.81
2023-05-14T06:29:19.119Z,101994.38
2023-05-14T06:31:46.625Z,101993.19
2023-05-14T06:34:16.953Z,102010.81
2023-05-14T06:36:51.243Z,102010.13
2023-05-14T06:39:17.945Z,101977.94
2023-05-14T06:41:47.746Z,102026.69
2023-05-14T06:44:22.219Z,101984.94
2023-05-14T06:46:52.862Z,101990.22
2023-05-14T06:49:23.958Z,101989.16
2023-05-14T06:51:50.605Z,102002.97
2023-05-14T06:54:18.957Z,102014.91
2023-05-14T06:56:48.580Z,101986.94
2023-05-14T06:59:15.273Z,101985.97
2023-05-14T07:01:44.010Z,102005.03
2023-05-14T07:04:10.790Z,102037.13
2023-05-14T07:06:40.041Z,102016.16
2023-05-14T07:09:10.708Z,102024.81
2023-05-14T07:11:42.623Z,101989.13
2023-05-14T07:14:09.416Z,102005.66
2023-05-14T07:16:36.341Z,102032.00
2023-05-14T07:19:03.067Z,102035.72
2023-05-14T07:21:29.601Z,102043.63
2023-05-14T07:23:56.226Z,102028.09
2023-05-14T07:26:24.513Z,102040.19
2023-05-14T07:28:51.158Z,102037.47
2023-05-14T07:31:17.711Z,102035.66
2023-05-14T07:33:44.380Z,102033.84
2023-05-14T07:36:11.163Z,102015.53
2023-05-14T07:38:37.914Z,102029.31
2023-05-14T07:41:04.777Z,102043.19
2023-05-14T07:43:31.757Z,102032.91
2023-05-14T07:45:58.336Z,102040.75
2023-05-14T07:48:24.971Z,102020.91
2023-05-14T07:50:51.964Z,102021.00
2023-05-14T07:53:18.661Z,102026.19
2023-05-14T07:55:48.148Z,102027.34
2023-05-14T07:58:14.901Z,102029.09
2023-05-14T08:00:41.449Z,102026.47
2023-05-14T08:03:08.138Z,102016.06
2023-05-14T08:05:34.791Z,102020.25
2023-05-14T08:08:01.683Z,102001.94
2023-05-14T08:10:28.674Z,101976.84
2023-05-14T08:13:03.068Z,101974.25
2023-05-14T08:27:43.423Z,101971.94
2023-05-14T08:46:39.052Z,101965.38
2023-05-14T08:57:18.918Z,101962.50
2023-05-14T08:59:45.676Z,101959.03
2023-05-14T09:02:15.305Z,101956.41
2023-05-14T09:04:42.623Z,101957.91
2023-05-14T09:07:09.512Z,101962.13
2023-05-14T09:09:36.741Z,101963.13
2023-05-14T09:12:03.662Z,101977.28
2023-05-14T09:14:30.278Z,101963.91
2023-05-14T09:16:57.186Z,101941.31
2023-05-14T09:19:24.300Z,101927.44
2023-05-14T09:21:51.091Z,101945.13
2023-05-14T09:24:22.690Z,101975.59
2023-05-14T09:26:58.917Z,101963.31
2023-05-14T09:29:26.648Z,101967.50
2023-05-14T09:31:54.925Z,101967.28
2023-05-14T09:34:30.665Z,101960.53
2023-05-14T09:37:00.435Z,101963.06
2023-05-14T09:39:30.304Z,101962.06
2023-05-14T09:41:57.209Z,101948.25
2023-05-14T09:44:35.515Z,101938.84
2023-05-14T09:47:02.149Z,101936.84
2023-05-14T09:49:28.768Z,101937.69
2023-05-14T09:51:59.981Z,101949.00
2023-05-14T09:54:27.480Z,101953.19
2023-05-14T09:56:56.592Z,101949.13
2023-05-14T09:59:23.300Z,101926.16
2023-05-14T10:01:52.954Z,101896.50
2023-05-14T10:04:20.574Z,101922.78
2023-05-14T10:06:52.953Z,101922.06
2023-05-14T10:09:29.207Z,101940.13
2023-05-14T10:12:11.605Z,101908.97
2023-05-14T10:14:46.742Z,101935.66
2023-05-14T10:17:18.897Z,101939.91
2023-05-14T10:19:57.209Z,101923.50
2023-05-14T10:22:45.288Z,101920.97
2023-05-14T10:25:12.374Z,101935.56
2023-05-14T10:27:45.604Z,101938.91
2023-05-14T10:30:13.115Z,101921.41
2023-05-14T10:33:07.003Z,101918.09
2023-05-14T10:35:57.766Z,101901.69
2023-05-14T10:38:33.938Z,101911.00
2023-05-14T10:41:06.184Z,101915.66
2023-05-14T10:43:44.992Z,101924.41
2023-05-14T10:46:14.827Z,101887.84
2023-05-14T10:48:49.719Z,101901.56
2023-05-14T10:51:17.623Z,101926.00
2023-05-14T10:53:44.725Z,101906.44
2023-05-14T10:56:14.303Z,101912.38
2023-05-14T10:58:46.164Z,101887.09
2023-05-14T11:01:13.821Z,101868.13
2023-05-14T11:04:15.122Z,101895.94
2023-05-14T11:06:46.008Z,101873.34
2023-05-14T11:09:16.066Z,101863.91
2023-05-14T11:12:15.177Z,101857.81
2023-05-14T11:14:55.661Z,101858.78
2023-05-14T11:17:25.011Z,101884.78
2023-05-14T11:19:51.813Z,101845.56
2023-05-14T11:22:31.581Z,101848.06
2023-05-14T11:24:58.319Z,101856.81
2023-05-14T11:27:36.036Z,101845.50
2023-05-14T11:30:09.743Z,101846.31
2023-05-14T11:32:59.290Z,101841.78
2023-05-14T11:35:33.175Z,101856.28
2023-05-14T11:38:13.202Z,101837.06
2023-05-14T11:41:20.547Z,101849.72
2023-05-14T11:44:02.263Z,101844.28
2023-05-14T11:49:29.860Z,101821.00
2023-05-14T11:52:03.676Z,101825.13
2023-05-14T11:54:32.873Z,101845.31
2023-05-14T11:57:02.067Z,101845.97
2023-05-14T11:59:35.113Z,101839.41
2023-05-14T12:02:26.134Z,101836.91
2023-05-14T12:07:38.645Z,101831.03
2023-05-14T12:10:18.272Z,101842.22
2023-05-14T12:12:48.976Z,101803.72
2023-05-14T12:15:44.524Z,101822.88
2023-05-14T12:18:27.792Z,101849.56
2023-05-14T12:21:51.334Z,101831.38
2023-05-14T12:24:27.592Z,101799.00
2023-05-14T12:27:31.922Z,101813.34
2023-05-14T12:30:23.302Z,101801.34
2023-05-14T12:43:35.705Z,101788.25
2023-05-14T12:46:20.862Z,101785.56
2023-05-14T12:58:33.268Z,101780.38
2023-05-14T13:01:22.016Z,101800.47
2023-05-14T13:04:13.952Z,101798.84
2023-05-14T13:12:39.174Z,101790.88
2023-05-14T13:19:40.083Z,101788.13
2023-05-14T13:21:46.389Z,101798.72
2023-05-14T13:37:09.860Z,101773.56
2023-05-14T13:45:12.941Z,101764.03
2023-05-14T13:50:55.814Z,101788.09
2023-05-14T14:01:12.938Z,101740.72
2023-05-14T14:41:38.854Z,101750.84
2023-05-14T14:44:08.136Z,101721.53
2023-05-14T15:12:10.923Z,101736.31
2023-05-14T15:14:37.526Z,101737.31
2023-05-14T15:17:04.440Z,101739.06
2023-05-14T15:19:32.354Z,101727.81
2023-05-14T15:21:58.928Z,101719.22
2023-05-14T15:24:26.238Z,101732.22
2023-05-14T15:26:53.750Z,101726.84
2023-05-14T15:29:20.567Z,101727.72
2023-05-14T15:31:47.469Z,101722.34
2023-05-14T15:34:14.050Z,101712.88
2023-05-14T15:36:40.828Z,101713.56
2023-05-14T15:39:10.237Z,101719.63
2023-05-14T15:41:37.124Z,101709.38
2023-05-14T15:44:03.966Z,101714.91
2023-05-14T15:46:31.041Z,101708.94
2023-05-14T15:48:57.983Z,101712.47
2023-05-14T15:51:24.558Z,101715.88
2023-05-14T15:53:53.543Z,101702.13
2023-05-14T15:56:21.202Z,101700.25
2023-05-14T15:58:48.307Z,101702.88
2023-05-14T16:01:14.908Z,101703.69
2023-05-14T16:03:41.698Z,101708.75
2023-05-14T16:06:08.384Z,101712.03
2023-05-14T16:08:34.917Z,101708.19
2023-05-14T16:11:01.615Z,101711.91
2023-05-14T16:13:28.243Z,101712.91
2023-05-14T16:15:55.198Z,101715.69
2023-05-14T16:18:22.353Z,101717.56
2023-05-14T16:20:48.889Z,101711.75
2023-05-14T16:23:15.536Z,101721.34
2023-05-14T16:25:42.186Z,101702.31
2023-05-14T16:28:08.893Z,101732.09
2023-05-14T16:30:35.573Z,101724.34
2023-05-14T16:33:02.150Z,101727.88
2023-05-14T16:35:28.919Z,101726.19
2023-05-14T16:37:56.159Z,101734.94
2023-05-14T16:40:23.747Z,101729.72
2023-05-14T16:42:51.197Z,101729.72
2023-05-14T16:45:18.056Z,101744.59
2023-05-14T16:47:44.624Z,101734.97
2023-05-14T16:50:11.727Z,101744.69
2023-05-14T16:52:38.252Z,101755.09
2023-05-14T16:55:05.282Z,101755.09
2023-05-14T16:57:32.091Z,101755.22
2023-05-14T16:59:58.700Z,101762.19
2023-05-14T17:02:25.668Z,101755.34
2023-05-14T17:04:54.172Z,101744.97
2023-05-14T17:07:20.797Z,101755.41
2023-05-14T17:09:47.398Z,101763.25
2023-05-14T17:12:14.051Z,101758.91
2023-05-14T17:14:40.921Z,101750.31
2023-05-14T17:17:07.529Z,101741.66
2023-05-14T17:19:34.282Z,101755.53
2023-05-14T17:22:00.990Z,101753.81
2023-05-14T17:24:27.517Z,101755.56
2023-05-14T17:26:54.084Z,101754.69
2023-05-14T17:29:20.676Z,101754.69
2023-05-14T17:31:48.316Z,101747.78
2023-05-14T17:34:15.019Z,101746.03
2023-05-14T17:36:41.572Z,101744.31
2023-05-14T17:39:08.125Z,101751.22
2023-05-14T17:41:34.952Z,101756.44
2023-05-14T17:44:01.531Z,101752.09
2023-05-14T17:46:28.221Z,101746.88
2023-05-14T17:48:54.838Z,101754.69
2023-05-14T17:51:21.361Z,101755.53
2023-05-14T17:53:47.914Z,101758.97
2023-05-14T17:56:16.544Z,101760.66
2023-05-14T17:58:43.283Z,101763.28
2023-05-14T18:01:09.995Z,101764.09
2023-05-14T18:03:36.700Z,101771.88
2023-05-14T18:06:03.896Z,101767.53
2023-05-14T18:08:30.610Z,101765.72
2023-05-14T18:10:58.491Z,101760.53
2023-05-14T18:13:25.157Z,101771.78
2023-05-14T18:15:54.258Z,101770.06
2023-05-14T18:18:21.744Z,101759.56
2023-05-14T18:20:49.503Z,101768.19
2023-05-14T18:23:16.233Z,101767.28
2023-05-14T18:25:43.076Z,101772.44
2023-05-14T18:28:09.815Z,101778.44
2023-05-14T18:30:36.391Z,101774.94
2023-05-14T18:33:03.573Z,101780.94
2023-05-14T18:35:30.880Z,101785.22
2023-05-14T18:37:57.511Z,101788.63
2023-05-14T18:40:24.068Z,101797.19
2023-05-14T18:42:50.821Z,101796.31
2023-05-14T18:45:17.536Z,101789.28
2023-05-14T18:47:44.170Z,101794.44
2023-05-14T18:50:11.119Z,101798.75
2023-05-14T18:52:38.225Z,101795.31
2023-05-14T18:55:05.264Z,101797.00
2023-05-14T18:57:34.688Z,101803.00
2023-05-14T19:00:02.071Z,101790.88
2023-05-14T19:02:28.955Z,101798.59
2023-05-14T19:04:56.266Z,101793.41
2023-05-14T19:07:22.979Z,101788.16
2023-05-14T19:09:49.531Z,101801.09
2023-05-14T19:12:16.348Z,101794.09
2023-05-14T19:14:43.046Z,101795.00
2023-05-14T19:17:09.777Z,101791.47
2023-05-14T19:19:36.655Z,101796.56
2023-05-14T19:22:03.316Z,101799.13
2023-05-14T19:24:30.279Z,101798.19
2023-05-14T19:26:57.026Z,101790.34
2023-05-14T19:29:23.619Z,101803.31
2023-05-14T19:31:50.281Z,101800.66
2023-05-14T19:34:16.936Z,101798.91
2023-05-14T19:36:43.583Z,101787.63
2023-05-14T19:39:10.933Z,101796.28
2023-05-14T19:41:37.510Z,101791.91
2023-05-14T19:44:04.190Z,101797.06
2023-05-14T19:46:30.832Z,101795.28
2023-05-14T19:48:57.456Z,101793.53
2023-05-14T19:51:25.337Z,101789.22
2023-05-14T19:53:51.925Z,101784.00
2023-05-14T19:56:18.517Z,101783.09
2023-05-14T19:58:45.193Z,101791.72
2023-05-14T20:01:12.081Z,101790.81
2023-05-14T20:03:38.927Z,101789.06
2023-05-14T20:06:07.057Z,101788.19
2023-05-14T20:08:33.832Z,101786.41
2023-05-14T20:11:00.667Z,101784.66
2023-05-14T20:13:27.269Z,101788.13
2023-05-14T20:15:55.280Z,101781.16
2023-05-14T20:18:21.911Z,101779.41
2023-05-14T20:20:49.093Z,101772.47
2023-05-14T20:23:15.995Z,101769.00
2023-05-14T20:25:43.105Z,101764.59
2023-05-14T20:28:10.496Z,101774.13
2023-05-14T20:30:37.091Z,101771.47
2023-05-14T20:33:04.124Z,101763.69
2023-05-14T20:35:31.131Z,101762.81
2023-05-14T20:37:57.736Z,101764.50
2023-05-14T20:40:24.841Z,101762.81
2023-05-14T20:42:52.260Z,101767.91
2023-05-14T20:45:19.069Z,101760.94
2023-05-14T20:47:45.708Z,101752.25
2023-05-14T20:50:13.650Z,101758.28
2023-05-14T20:52:40.436Z,101764.22
2023-05-14T20:55:08.011Z,101774.56
2023-05-14T20:57:34.583Z,101774.53
2023-05-14T21:00:02.490Z,101769.25
2023-05-14T21:02:29.192Z,101767.50
2023-05-14T21:04:55.910Z,101771.81
2023-05-14T21:07:22.756Z,101770.00
2023-05-14T21:09:52.379Z,101769.94
2023-05-14T21:12:19.421Z,101768.25
2023-05-14T21:14:46.227Z,101773.47
2023-05-14T21:17:12.919Z,101768.22
2023-05-14T21:19:39.664Z,101757.81
2023-05-14T21:22:07.110Z,101756.06
2023-05-14T21:24:33.659Z,101747.31
2023-05-14T21:27:00.318Z,101758.47
2023-05-14T21:29:26.864Z,101760.19
2023-05-14T21:31:53.422Z,101770.53
2023-05-14T21:34:20.469Z,101763.50
2023-05-14T21:36:47.502Z,101764.31
2023-05-14T21:39:14.038Z,101759.03
2023-05-14T21:41:40.632Z,101759.03
2023-05-14T21:44:07.124Z,101751.28
2023-05-14T21:46:33.860Z,101749.56
2023-05-14T21:49:00.607Z,101741.69
2023-05-14T21:51:27.275Z,101741.63
2023-05-14T21:53:53.805Z,101742.50
2023-05-14T21:56:21.178Z,101757.13
2023-05-14T21:58:47.780Z,101752.81
2023-05-14T22:01:14.328Z,101747.66
2023-05-14T22:03:41.480Z,101744.13
2023-05-14T22:06:08.072Z,101751.84
2023-05-14T22:08:34.654Z,101757.91
2023-05-14T22:11:01.334Z,101757.00
2023-05-14T22:13:27.975Z,101763.06
2023-05-14T22:16:04.902Z,101759.72
2023-05-14T22:18:36.672Z,101752.81
2023-05-14T22:21:03.691Z,101738.16
2023-05-14T22:23:30.420Z,101738.22
2023-05-14T22:25:57.968Z,101739.13
2023-05-14T22:28:24.607Z,101724.44
2023-05-14T22:30:51.222Z,101721.81
2023-05-14T22:33:19.291Z,101722.72
2023-05-14T22:35:45.915Z,101719.25
2023-05-14T22:38:13.585Z,101717.59
2023-05-14T22:40:40.179Z,101723.63
2023-05-14T22:43:06.744Z,101717.63
2023-05-14T22:45:33.375Z,101706.31
2023-05-14T22:48:00.059Z,101715.09
2023-05-14T22:50:26.850Z,101712.53
2023-05-14T22:52:53.380Z,101712.56
2023-05-14T22:55:19.915Z,101704.78
2023-05-14T22:57:46.507Z,101697.84
2023-05-14T23:00:13.894Z,101695.25
2023-05-14T23:02:40.687Z,101698.72
2023-05-14T23:05:08.563Z,101693.53
2023-05-14T23:07:35.467Z,101690.06
2023-05-14T23:10:02.181Z,101684.03
2023-05-14T23:12:28.748Z,101689.19
2023-05-14T23:14:55.494Z,101688.38
2023-05-14T23:17:22.164Z,101696.16
2023-05-14T23:19:48.874Z,101700.44
2023-05-14T23:22:15.650Z,101697.84
2023-05-14T23:24:42.219Z,101696.13
2023-05-14T23:27:09.133Z,101690.09
2023-05-14T23:29:35.648Z,101688.34
2023-05-14T23:32:02.326Z,101678.88
2023-05-14T23:34:28.895Z,101685.72
2023-05-14T23:36:55.949Z,101680.56
2023-05-14T23:39:22.784Z,101677.03
2023-05-14T23:41:49.429Z,101683.91
2023-05-14T23:44:16.207Z,101684.78
2023-05-14T23:46:42.846Z,101676.09
2023-05-14T23:49:09.483Z,101676.97
2023-05-14T23:51:37.745Z,101678.66
2023-05-14T23:54:04.682Z,101663.91
2023-05-14T23:56:31.714Z,101662.97
2023-05-14T23:58:58.279Z,101657.75
